Time;durP1;ratioP1;P1;durP2;ratioP2;P2;SDS_P1;SDS_P2;PMS_P1;PMS_P2;Temp;Humidity;BMP_temperature;BMP_pressure;BME280_temperature;BME280_humidity;BME280_pressure;Samples;Min_cycle;Max_cycle;Signal;HPM_P1;HPM_P2
2022/11/24 00:00:46;;;;;;;0.00;0.00;;;;;;;16.45;61.25;100187.28;2055654;28;20545;-73
2022/11/24 00:01:49;;;;;;;0.00;0.00;;;;;;;16.46;61.27;100188.06;2059507;28;20066;-73
2022/11/24 00:02:51;;;;;;;0.00;0.00;;;;;;;16.45;61.06;100184.56;2068500;28;20049;-73
2022/11/24 00:03:56;;;;;;;0.00;0.00;;;;;;;16.46;61.22;100188.06;2066928;28;20054;-74
2022/11/24 00:04:58;;;;;;;0.00;0.00;;;;;;;16.46;61.21;100190.78;2059972;28;20534;-74
2022/11/24 00:06:04;;;;;;;0.10;0.10;;;;;;;16.44;61.14;100186.50;2055218;28;20474;-73
2022/11/24 00:07:06;;;;;;;0.00;0.00;;;;;;;16.43;61.10;100193.09;2070853;28;20054;-73
2022/11/24 00:08:09;;;;;;;0.00;0.00;;;;;;;16.45;61.15;100195.47;2080600;28;20401;-73
2022/11/24 00:09:11;;;;;;;0.00;0.00;;;;;;;16.46;61.08;100196.25;2073426;28;20111;-74
2022/11/24 00:10:13;;;;;;;0.00;0.00;;;;;;;16.44;61.08;100194.66;2068701;28;20062;-74
2022/11/24 00:11:19;;;;;;;0.00;0.00;;;;;;;16.46;61.16;100193.53;2065815;28;20129;-74
2022/11/24 00:12:21;;;;;;;0.00;0.00;;;;;;;16.44;61.10;100194.66;2069463;28;20319;-74
2022/11/24 00:13:23;;;;;;;0.00;0.00;;;;;;;16.43;61.06;100193.09;2071223;28;20573;-74
2022/11/24 00:14:25;;;;;;;0.00;0.00;;;;;;;16.45;61.04;100192.72;2063661;28;20489;-74
2022/11/24 00:15:29;;;;;;;0.00;0.00;;;;;;;16.46;61.18;100190.78;2062539;28;20046;-73
2022/11/24 00:16:33;;;;;;;0.00;0.00;;;;;;;16.44;61.38;100183.78;2062166;28;20062;-75
2022/11/24 00:17:36;;;;;;;0.00;0.00;;;;;;;16.43;61.22;100192.31;2064202;28;20058;-74
2022/11/24 00:18:40;;;;;;;0.00;0.00;;;;;;;16.44;61.18;100189.22;2067278;28;20533;-74
2022/11/24 00:19:43;;;;;;;0.00;0.00;;;;;;;16.44;61.00;100189.22;2067177;28;20169;-73
2022/11/24 00:20:51;;;;;;;0.00;0.00;;;;;;;16.41;61.33;100184.53;2071089;28;20501;-74
2022/11/24 00:21:54;;;;;;;0.00;0.00;;;;;;;16.43;61.14;100193.09;2068383;28;20078;-74
2022/11/24 00:22:56;;;;;;;0.00;0.00;;;;;;;16.44;61.29;100188.44;2069352;28;20054;-74
2022/11/24 00:23:58;;;;;;;0.00;0.00;;;;;;;16.43;61.32;100182.19;2065765;28;20550;-74
2022/11/24 00:25:01;;;;;;;0.00;0.00;;;;;;;16.43;61.13;100174.03;2065324;28;20050;-75
2022/11/24 00:26:05;;;;;;;0.00;0.00;;;;;;;16.45;61.25;100184.56;2063043;28;20061;-75
2022/11/24 00:27:08;;;;;;;0.00;0.00;;;;;;;16.43;61.07;100176.75;2066670;28;20069;-75
2022/11/24 00:28:10;;;;;;;0.00;0.00;;;;;;;16.43;61.21;100174.03;2084821;28;20061;-75
2022/11/24 00:29:13;;;;;;;0.08;0.08;;;;;;;16.43;61.37;100171.31;2077677;28;20053;-75
2022/11/24 00:30:15;;;;;;;0.00;0.00;;;;;;;16.43;61.13;100176.75;2066118;28;20058;-75
2022/11/24 00:31:21;;;;;;;0.00;0.00;;;;;;;16.44;61.06;100178.31;2065255;28;20061;-75
2022/11/24 00:32:23;;;;;;;0.00;0.00;;;;;;;16.41;61.18;100179.09;2069790;28;20054;-75
2022/11/24 00:33:32;;;;;;;0.00;0.00;;;;;;;16.42;61.14;100183.38;2065350;28;20116;-75
2022/11/24 00:34:34;;;;;;;0.00;0.00;;;;;;;16.43;61.20;100175.97;2063221;28;20054;-75
2022/11/24 00:35:37;;;;;;;0.00;0.00;;;;;;;16.43;61.21;100184.91;2057901;28;20077;-75
2022/11/24 00:36:40;;;;;;;0.00;0.00;;;;;;;16.43;61.24;100187.66;2063279;28;20458;-74
2022/11/24 00:37:42;;;;;;;0.00;0.00;;;;;;;16.44;61.02;100186.50;2071111;28;20057;-74
2022/11/24 00:38:45;;;;;;;0.00;0.00;;;;;;;16.43;61.31;100187.66;2063025;28;20061;-75
2022/11/24 00:39:47;;;;;;;0.00;0.00;;;;;;;16.43;61.11;100187.66;2063138;28;20514;-75
2022/11/24 00:40:49;;;;;;;0.00;0.00;;;;;;;16.44;61.13;100194.66;2074161;28;20119;-75
2022/11/24 00:41:52;;;;;;;0.00;0.00;;;;;;;16.43;61.19;100190.38;2066486;28;20058;-75
2022/11/24 00:42:54;;;;;;;0.00;0.00;;;;;;;16.43;61.10;100187.66;2064630;28;20057;-74
2022/11/24 00:43:57;;;;;;;0.00;0.00;;;;;;;16.43;61.17;100187.66;2067889;28;20057;-74
2022/11/24 00:45:00;;;;;;;0.00;0.00;;;;;;;16.43;61.24;100192.31;2062559;28;20105;-75
2022/11/24 00:46:15;;;;;;;0.00;0.00;;;;;;;16.39;61.03;100192.31;2064005;28;20058;-75
2022/11/24 00:47:18;;;;;;;0.00;0.00;;;;;;;16.43;61.24;100197.75;2065315;28;20176;-75
2022/11/24 00:48:23;;;;;;;0.00;0.00;;;;;;;16.42;61.29;100199.72;2062646;28;20054;-74
2022/11/24 00:49:29;;;;;;;0.00;0.00;;;;;;;16.41;61.25;100195.44;2056808;28;20050;-74
2022/11/24 00:50:31;;;;;;;0.00;0.00;;;;;;;16.41;61.13;100200.88;2056602;28;20054;-74
2022/11/24 00:51:34;;;;;;;0.00;0.00;;;;;;;16.41;61.17;100211.78;2054260;28;20055;-74
2022/11/24 00:52:37;;;;;;;0.00;0.00;;;;;;;16.42;61.25;100201.66;2057236;28;20050;-74
2022/11/24 00:53:40;;;;;;;0.00;0.00;;;;;;;16.42;61.03;100201.66;2063164;28;20046;-73
2022/11/24 00:54:45;;;;;;;0.00;0.00;;;;;;;16.42;61.00;100202.47;2077646;28;20061;-74
2022/11/24 00:55:50;;;;;;;0.00;0.00;;;;;;;16.41;61.12;100211.03;2071308;28;20049;-72
2022/11/24 00:56:53;;;;;;;0.00;0.00;;;;;;;16.42;61.11;100216.06;2071495;28;20057;-73
2022/11/24 00:57:54;;;;;;;0.00;0.00;;;;;;;16.43;61.23;100203.22;2071379;28;20050;-74
2022/11/24 00:58:58;;;;;;;0.00;0.00;;;;;;;16.42;61.25;100212.56;2063380;28;20141;-75
2022/11/24 01:00:00;;;;;;;0.00;0.00;;;;;;;16.42;61.16;100202.47;2076664;28;20525;-74
2022/11/24 01:01:04;;;;;;;0.00;0.00;;;;;;;16.43;61.25;100214.91;2077265;28;20093;-74
2022/11/24 01:02:06;;;;;;;0.00;0.00;;;;;;;16.42;61.22;100218.81;2070034;28;20648;-74
2022/11/24 01:03:12;;;;;;;0.00;0.00;;;;;;;16.43;61.13;100220.34;2063312;28;20061;-75
2022/11/24 01:04:16;;;;;;;0.00;0.00;;;;;;;16.39;61.15;100219.56;2063701;28;20046;-74
2022/11/24 01:05:19;;;;;;;0.00;0.00;;;;;;;16.41;61.04;100224.66;2071202;28;20493;-74
2022/11/24 01:06:24;;;;;;;0.00;0.00;;;;;;;16.42;61.17;100218.81;2067935;28;20657;-74
2022/11/24 01:07:26;;;;;;;0.00;0.00;;;;;;;16.42;61.35;100221.53;2073001;28;20065;-74
2022/11/24 01:08:29;;;;;;;0.00;0.00;;;;;;;16.42;61.04;100221.53;2070353;28;20050;-73
2022/11/24 01:09:31;;;;;;;0.00;0.00;;;;;;;16.40;61.29;100221.13;2078744;28;20053;-73
2022/11/24 01:10:34;;;;;;;0.00;0.00;;;;;;;16.41;61.07;100228.13;2069945;28;20517;-74
2022/11/24 01:12:54;;;;;;;0.00;0.00;;;;;;;16.39;61.28;100222.28;2063215;28;20050;-73
2022/11/24 01:13:58;;;;;;;0.00;0.00;;;;;;;16.40;61.04;100231.25;2065535;28;20469;-74
2022/11/24 01:15:01;;;;;;;0.00;0.00;;;;;;;16.41;61.11;100230.09;2077437;28;20052;-73
2022/11/24 01:16:04;;;;;;;0.00;0.00;;;;;;;16.41;61.06;100230.09;2075829;28;20065;-74
2022/11/24 01:17:07;;;;;;;0.00;0.00;;;;;;;16.39;61.10;100227.75;2075948;28;20072;-74
2022/11/24 01:18:12;;;;;;;0.00;0.00;;;;;;;16.42;61.20;100234.38;2074622;28;20464;-74
2022/11/24 01:19:14;;;;;;;0.00;0.00;;;;;;;16.41;61.08;100232.81;2074082;28;20065;-73
2022/11/24 01:20:17;;;;;;;0.00;0.00;;;;;;;16.40;61.12;100221.13;2073759;28;20498;-73
2022/11/24 01:21:20;;;;;;;0.00;0.00;;;;;;;16.41;61.27;100230.09;2068751;28;20050;-74
2022/11/24 01:22:25;;;;;;;0.00;0.00;;;;;;;16.41;61.14;100227.38;2064916;28;20046;-73
2022/11/24 01:23:28;;;;;;;0.00;0.00;;;;;;;16.39;61.18;100241.34;2052398;28;20051;-73
2022/11/24 01:24:30;;;;;;;0.00;0.00;;;;;;;16.41;61.32;100249.16;2057242;28;20086;-73
2022/11/24 01:25:33;;;;;;;0.00;0.00;;;;;;;16.39;60.95;100246.81;2060198;28;20062;-73
2022/11/24 01:26:35;;;;;;;0.00;0.00;;;;;;;16.40;61.22;100256.56;2070957;28;20061;-73
2022/11/24 01:27:39;;;;;;;0.00;0.00;;;;;;;16.41;61.10;100249.16;2070317;28;20080;-74
2022/11/24 01:28:43;;;;;;;0.00;0.00;;;;;;;16.41;61.20;100243.72;2069884;28;20513;-73
2022/11/24 01:29:49;;;;;;;0.00;0.00;;;;;;;16.40;61.26;100247.59;2068358;28;20068;-74
2022/11/24 01:30:56;;;;;;;0.00;0.00;;;;;;;16.39;61.18;100246.81;2069784;28;20054;-72
2022/11/24 01:31:59;;;;;;;0.00;0.00;;;;;;;16.39;61.24;100246.81;2070296;28;20131;-73
2022/11/24 01:33:02;;;;;;;0.00;0.00;;;;;;;16.40;61.14;100272.13;2078698;28;20064;-73
2022/11/24 01:34:06;;;;;;;0.00;0.00;;;;;;;16.40;61.19;100266.66;2075802;28;20064;-72
2022/11/24 01:35:09;;;;;;;0.00;0.00;;;;;;;16.40;61.27;100272.13;2071651;28;20077;-73
2022/11/24 01:36:12;;;;;;;0.05;0.05;;;;;;;16.41;61.27;100273.69;2061499;28;20054;-73
2022/11/24 01:37:14;;;;;;;0.00;0.00;;;;;;;16.40;61.23;100275.63;2059635;28;20107;-73
2022/11/24 01:38:17;;;;;;;0.00;0.00;;;;;;;16.40;61.07;100269.38;2069800;28;20049;-73
2022/11/24 01:39:19;;;;;;;0.00;0.00;;;;;;;16.39;61.08;100268.59;2076221;28;20136;-72
2022/11/24 01:40:22;;;;;;;0.00;0.00;;;;;;;16.40;61.13;100269.38;2076513;28;20543;-73
2022/11/24 01:41:25;;;;;;;0.00;0.00;;;;;;;16.41;61.11;100265.50;2069436;28;20107;-73
2022/11/24 01:42:37;;;;;;;0.00;0.00;;;;;;;16.38;61.01;100271.72;2060479;28;20057;-72
2022/11/24 01:43:40;;;;;;;0.00;0.00;;;;;;;16.39;60.95;100276.03;2071749;28;20045;-72
2022/11/24 01:44:43;;;;;;;0.00;0.00;;;;;;;16.39;61.20;100278.75;2073508;28;20057;-72
2022/11/24 01:45:46;;;;;;;0.00;0.00;;;;;;;16.39;61.13;100276.78;2078143;28;20049;-72
2022/11/24 01:46:53;;;;;;;0.00;0.00;;;;;;;16.40;60.92;100278.34;2079405;28;20619;-72
2022/11/24 01:47:55;;;;;;;0.00;0.00;;;;;;;16.38;61.23;100283.41;2076997;28;20088;-72
2022/11/24 01:49:04;;;;;;;0.00;0.00;;;;;;;16.38;61.21;100288.84;2067458;28;20081;-73
2022/11/24 01:50:14;;;;;;;0.00;0.00;;;;;;;16.36;61.01;100293.16;2073887;28;20531;-72
2022/11/24 01:51:22;;;;;;;0.00;0.00;;;;;;;16.37;61.47;100290.03;2069544;28;20042;-73
2022/11/24 01:52:28;;;;;;;0.00;0.00;;;;;;;16.38;61.00;100294.31;2066315;28;20116;-71
2022/11/24 01:53:31;;;;;;;0.00;0.00;;;;;;;16.37;60.86;100273.69;2066838;28;20127;-72
2022/11/24 01:54:43;;;;;;;0.00;0.00;;;;;;;16.37;61.25;100270.97;2082174;28;20049;-74
2022/11/24 01:55:45;;;;;;;0.00;0.00;;;;;;;16.37;61.40;100275.63;2076879;28;20061;-72
2022/11/24 01:56:51;;;;;;;0.00;0.00;;;;;;;16.37;61.08;100276.41;2070033;28;20057;-72
2022/11/24 01:57:58;;;;;;;0.00;0.00;;;;;;;16.37;61.14;100279.13;2067158;28;20421;-72
2022/11/24 01:59:05;;;;;;;0.00;0.00;;;;;;;16.37;61.21;100281.88;2068966;28;20050;-72
2022/11/24 02:00:09;;;;;;;0.00;0.00;;;;;;;16.38;61.21;100280.69;2066591;28;20046;-72
2022/11/24 02:01:15;;;;;;;0.00;0.00;;;;;;;16.36;61.19;100277.56;2080407;28;20140;-72
2022/11/24 02:02:18;;;;;;;0.00;0.00;;;;;;;16.37;61.12;100278.34;2077550;28;20049;-72
2022/11/24 02:03:25;;;;;;;0.00;0.00;;;;;;;16.36;60.80;100283.03;2081868;28;20056;-71
2022/11/24 02:04:31;;;;;;;0.00;0.00;;;;;;;16.37;61.05;100281.88;2076631;28;20079;-72
2022/11/24 02:05:40;;;;;;;0.00;0.00;;;;;;;16.35;61.09;100273.31;2061562;28;20058;-73
2022/11/24 02:06:45;;;;;;;0.00;0.00;;;;;;;16.36;61.13;100280.28;2071358;28;20046;-72
2022/11/24 02:07:48;;;;;;;0.00;0.00;;;;;;;16.36;61.29;100276.81;2071973;28;20107;-74
2022/11/24 02:08:57;;;;;;;0.00;0.00;;;;;;;16.38;61.08;100282.63;2070268;28;20511;-72
2022/11/24 02:10:03;;;;;;;0.00;0.00;;;;;;;16.36;61.03;100291.19;2069769;28;20050;-72
2022/11/24 02:11:06;;;;;;;0.00;0.00;;;;;;;16.35;61.18;100284.19;2075456;28;20111;-72
2022/11/24 02:12:09;;;;;;;0.00;0.00;;;;;;;16.37;61.18;100289.25;2076388;28;20057;-72
2022/11/24 02:13:14;;;;;;;0.00;0.00;;;;;;;16.37;61.19;100297.44;2068381;28;20058;-72
2022/11/24 02:14:17;;;;;;;0.00;0.00;;;;;;;16.36;61.33;100296.63;2067957;28;20518;-72
2022/11/24 02:15:21;;;;;;;0.00;0.00;;;;;;;16.37;61.26;100291.97;2070845;28;20398;-71
2022/11/24 02:16:22;;;;;;;0.00;0.00;;;;;;;16.37;61.37;100295.50;2068069;28;20065;-71
2022/11/24 02:17:25;;;;;;;0.00;0.00;;;;;;;16.37;61.20;100303.66;2078091;28;20041;-71
2022/11/24 02:18:27;;;;;;;0.00;0.00;;;;;;;16.38;61.06;100298.97;2074978;28;20057;-71
2022/11/24 02:19:41;;;;;;;0.00;0.00;;;;;;;16.36;61.07;100296.63;2058668;28;20070;-71
2022/11/24 02:20:44;;;;;;;0.00;0.00;;;;;;;16.36;61.20;100304.81;2070760;28;20050;-72
2022/11/24 02:21:47;;;;;;;0.00;0.00;;;;;;;16.36;61.18;100307.53;2078203;28;20054;-71
2022/11/24 02:22:55;;;;;;;0.00;0.00;;;;;;;16.37;61.26;100309.09;2074235;28;20845;-72
2022/11/24 02:24:08;;;;;;;0.00;0.00;;;;;;;16.35;61.14;100305.22;2078717;28;20418;-71
2022/11/24 02:25:20;;;;;;;0.00;0.00;;;;;;;16.34;61.14;100312.63;2075286;28;20973;-72
2022/11/24 02:26:35;;;;;;;0.00;0.00;;;;;;;16.31;61.22;100297.06;2077085;28;20049;-71
2022/11/24 02:27:37;;;;;;;0.00;0.00;;;;;;;16.32;61.33;100309.50;2077272;28;20061;-71
2022/11/24 02:28:40;;;;;;;0.00;0.00;;;;;;;16.34;61.26;100318.06;2077141;28;20053;-72
2022/11/24 02:29:42;;;;;;;0.00;0.00;;;;;;;16.34;61.22;100318.06;2075743;28;20064;-72
2022/11/24 02:30:45;;;;;;;0.00;0.00;;;;;;;16.35;61.36;100302.47;2069735;28;20077;-73
2022/11/24 02:31:52;;;;;;;0.10;0.10;;;;;;;16.36;60.65;100315.72;2080757;28;20112;-73
2022/11/24 02:32:54;;;;;;;0.00;0.00;;;;;;;16.35;61.18;100316.88;2079253;28;20053;-73
2022/11/24 02:33:57;;;;;;;0.10;0.10;;;;;;;16.35;61.07;100316.09;2076264;28;20053;-73
2022/11/24 02:35:00;;;;;;;0.00;0.00;;;;;;;16.37;61.17;100319.22;2075996;28;20505;-73
2022/11/24 02:36:04;;;;;;;0.00;0.00;;;;;;;16.36;61.06;100323.88;2075383;28;20046;-73
2022/11/24 02:37:06;;;;;;;0.00;0.00;;;;;;;16.35;61.23;100316.88;2071627;28;20069;-72
2022/11/24 02:38:11;;;;;;;0.00;0.00;;;;;;;16.37;61.01;100325.47;2068023;28;20058;-74
2022/11/24 02:39:14;;;;;;;0.00;0.00;;;;;;;16.35;61.04;100314.16;2071069;28;20057;-75
2022/11/24 02:40:23;;;;;;;0.00;0.00;;;;;;;16.37;61.05;100316.50;2069987;28;20538;-74
2022/11/24 02:41:27;;;;;;;0.00;0.00;;;;;;;16.34;61.22;100315.34;2069701;28;20076;-74
2022/11/24 02:42:36;;;;;;;0.00;0.00;;;;;;;16.34;61.17;100318.06;2064284;28;20054;-73
2022/11/24 02:43:41;;;;;;;0.00;0.00;;;;;;;16.35;61.09;100313.38;2058318;28;20082;-74
2022/11/24 02:44:49;;;;;;;0.00;0.00;;;;;;;16.35;61.11;100322.34;2056622;28;20038;-73
2022/11/24 02:45:51;;;;;;;0.00;0.00;;;;;;;16.33;61.31;100313.78;2055600;28;20054;-73
2022/11/24 02:47:02;;;;;;;0.00;0.00;;;;;;;16.32;61.40;100316.88;2065602;28;20170;-74
2022/11/24 02:48:05;;;;;;;0.03;0.03;;;;;;;16.34;61.13;100317.28;2064420;28;20054;-74
2022/11/24 02:49:07;;;;;;;0.00;0.00;;;;;;;16.34;61.12;100320.78;2059688;28;20589;-73
2022/11/24 02:50:10;;;;;;;0.00;0.00;;;;;;;16.35;61.18;100322.34;2069158;28;20073;-73
2022/11/24 02:51:12;;;;;;;0.00;0.00;;;;;;;16.35;61.02;100322.34;2073754;28;20084;-74
2022/11/24 02:52:15;;;;;;;0.00;0.00;;;;;;;16.36;61.00;100334.03;2064515;28;20564;-74
2022/11/24 02:53:17;;;;;;;0.00;0.00;;;;;;;16.36;60.96;100340.22;2061163;28;20057;-74
2022/11/24 02:54:20;;;;;;;0.00;0.00;;;;;;;16.36;61.13;100331.31;2072083;28;20513;-74
2022/11/24 02:55:22;;;;;;;0.00;0.00;;;;;;;16.36;61.09;100339.47;2074463;28;20524;-73
2022/11/24 02:56:26;;;;;;;0.00;0.00;;;;;;;16.36;61.29;100340.22;2071730;28;20057;-74
2022/11/24 02:57:28;;;;;;;0.00;0.00;;;;;;;16.36;61.11;100347.66;2064011;28;20038;-72
2022/11/24 02:58:32;;;;;;;0.00;0.00;;;;;;;16.37;61.02;100339.09;2065553;28;20784;-73
2022/11/24 02:59:34;;;;;;;0.00;0.00;;;;;;;16.34;61.15;100345.31;2069425;28;20053;-73
2022/11/24 03:00:36;;;;;;;0.00;0.00;;;;;;;16.36;61.13;100339.47;2069278;28;20510;-73
2022/11/24 03:01:38;;;;;;;0.10;0.10;;;;;;;16.36;61.16;100340.22;2076521;28;20061;-73
2022/11/24 03:02:41;;;;;;;0.00;0.00;;;;;;;16.36;61.05;100345.69;2080340;28;20084;-73
2022/11/24 03:03:45;;;;;;;0.00;0.00;;;;;;;16.37;61.13;100343.75;2072370;28;20054;-73
2022/11/24 03:04:48;;;;;;;0.00;0.00;;;;;;;16.36;60.98;100344.91;2071459;28;20053;-73
2022/11/24 03:05:50;;;;;;;0.00;0.00;;;;;;;16.35;60.94;100344.13;2070925;28;20080;-74
2022/11/24 03:06:53;;;;;;;0.00;0.00;;;;;;;16.36;61.05;100345.69;2068158;28;20062;-73
2022/11/24 03:07:55;;;;;;;0.00;0.00;;;;;;;16.36;61.10;100337.50;2070513;28;20160;-74
2022/11/24 03:08:57;;;;;;;0.00;0.00;;;;;;;16.37;61.12;100344.53;2068543;28;20100;-74
2022/11/24 03:10:00;;;;;;;0.00;0.00;;;;;;;16.37;61.15;100347.25;2071131;28;20107;-73
2022/11/24 03:11:02;;;;;;;0.00;0.00;;;;;;;16.36;60.99;100348.41;2072686;28;20045;-73
2022/11/24 03:12:05;;;;;;;0.00;0.00;;;;;;;16.36;61.05;100342.97;2070998;28;20073;-73
2022/11/24 03:13:07;;;;;;;0.00;0.00;;;;;;;16.37;60.97;100349.19;2074210;28;20116;-74
2022/11/24 03:14:12;;;;;;;0.00;0.00;;;;;;;16.37;61.07;100347.25;2072616;28;20154;-73
2022/11/24 03:15:13;;;;;;;0.00;0.00;;;;;;;16.36;61.11;100347.66;2074599;28;20049;-74
2022/11/24 03:16:16;;;;;;;0.00;0.00;;;;;;;16.37;61.09;100351.91;2075357;28;20154;-73
2022/11/24 03:17:18;;;;;;;0.00;0.00;;;;;;;16.37;61.06;100349.97;2071596;28;20057;-73
2022/11/24 03:18:21;;;;;;;0.00;0.00;;;;;;;16.36;61.01;100351.13;2071609;28;20050;-73
2022/11/24 03:19:22;;;;;;;0.03;0.03;;;;;;;16.36;61.00;100351.13;2069329;28;20045;-73
2022/11/24 03:20:25;;;;;;;0.00;0.00;;;;;;;16.37;61.10;100352.69;2064799;28;20518;-73
2022/11/24 03:21:27;;;;;;;0.00;0.00;;;;;;;16.36;61.05;100348.41;2076296;28;20058;-72
2022/11/24 03:22:30;;;;;;;0.00;0.00;;;;;;;16.37;61.16;100354.66;2078173;28;20524;-73
2022/11/24 03:23:32;;;;;;;0.00;0.00;;;;;;;16.36;61.18;100351.13;2077521;28;20513;-72
2022/11/24 03:24:35;;;;;;;0.00;0.00;;;;;;;16.36;60.95;100348.41;2078683;28;20054;-74
2022/11/24 03:25:37;;;;;;;0.10;0.10;;;;;;;16.37;60.95;100355.44;2082608;28;20045;-74
2022/11/24 03:26:40;;;;;;;0.00;0.00;;;;;;;16.36;60.93;100351.13;2071927;28;20064;-74
2022/11/24 03:27:42;;;;;;;0.00;0.00;;;;;;;16.37;60.91;100360.09;2079169;28;20096;-74
2022/11/24 03:28:45;;;;;;;0.00;0.00;;;;;;;16.37;61.07;100358.16;2069080;28;20484;-75
2022/11/24 03:29:48;;;;;;;0.00;0.00;;;;;;;16.37;60.88;100360.88;2071550;28;20065;-75
2022/11/24 03:30:51;;;;;;;0.00;0.00;;;;;;;16.38;61.06;100361.63;2069850;28;20046;-74
2022/11/24 03:31:53;;;;;;;0.00;0.00;;;;;;;16.37;61.03;100357.38;2066480;28;20088;-75
2022/11/24 03:32:56;;;;;;;0.00;0.00;;;;;;;16.36;61.30;100367.47;2074572;28;20552;-75
2022/11/24 03:33:58;;;;;;;0.00;0.00;;;;;;;16.37;61.07;100363.59;2059035;28;20051;-75
2022/11/24 03:35:00;;;;;;;0.08;0.08;;;;;;;16.37;60.91;100371.00;2059091;28;20426;-74
2022/11/24 03:36:03;;;;;;;0.00;0.00;;;;;;;16.36;61.10;100370.19;2070444;28;20426;-75
2022/11/24 03:37:06;;;;;;;0.00;0.00;;;;;;;16.37;60.96;100371.78;2072807;28;20053;-72
2022/11/24 03:38:08;;;;;;;0.00;0.00;;;;;;;16.37;61.15;100377.22;2068396;28;20053;-73
2022/11/24 03:39:10;;;;;;;0.00;0.00;;;;;;;16.37;60.91;100371.78;2065182;28;20054;-73
2022/11/24 03:40:13;;;;;;;0.00;0.00;;;;;;;16.34;60.95;100369.84;2069906;28;20517;-73
2022/11/24 03:41:17;;;;;;;0.00;0.00;;;;;;;16.37;60.87;100374.50;2076646;28;20056;-73
2022/11/24 03:42:24;;;;;;;0.00;0.00;;;;;;;16.37;61.05;100385.41;2063257;28;20057;-77
2022/11/24 03:43:27;;;;;;;0.00;0.00;;;;;;;16.37;61.09;100381.88;2070925;28;20053;-71
2022/11/24 03:44:30;;;;;;;0.00;0.00;;;;;;;16.36;61.02;100378.38;2078153;28;20049;-72
2022/11/24 03:45:34;;;;;;;0.10;0.10;;;;;;;16.38;60.92;100386.16;2077402;28;20529;-71
2022/11/24 03:46:48;;;;;;;0.00;0.00;;;;;;;16.34;60.95;100383.47;2077649;28;20064;-73
2022/11/24 03:47:50;;;;;;;0.00;0.00;;;;;;;16.35;61.09;100387.72;2076106;28;20048;-73
2022/11/24 03:48:53;;;;;;;0.00;0.00;;;;;;;16.36;60.91;100389.28;2077120;28;20057;-73
2022/11/24 03:49:55;;;;;;;0.00;0.00;;;;;;;16.36;60.97;100389.28;2070445;28;20050;-73
2022/11/24 03:50:59;;;;;;;0.00;0.00;;;;;;;16.37;60.96;100390.06;2078976;28;20060;-73
2022/11/24 03:52:01;;;;;;;0.00;0.00;;;;;;;16.36;61.15;100389.28;2083895;28;20084;-74
2022/11/24 03:53:09;;;;;;;0.00;0.00;;;;;;;16.35;60.88;100390.44;2077941;28;20607;-74
2022/11/24 03:54:11;;;;;;;0.00;0.00;;;;;;;16.35;60.97;100395.91;2063273;28;20108;-74
2022/11/24 03:55:14;;;;;;;0.00;0.00;;;;;;;16.35;61.00;100386.94;2062295;28;20050;-73
2022/11/24 03:56:16;;;;;;;0.00;0.00;;;;;;;16.35;60.99;100393.19;2070860;28;20104;-74
2022/11/24 03:57:19;;;;;;;0.00;0.00;;;;;;;16.36;61.16;100383.06;2070479;28;20486;-74
2022/11/24 03:58:21;;;;;;;0.00;0.00;;;;;;;16.36;60.99;100388.50;2066713;28;20062;-74
2022/11/24 03:59:24;;;;;;;0.00;0.00;;;;;;;16.36;60.82;100391.25;2055260;28;20050;-74
2022/11/24 04:00:31;;;;;;;0.00;0.00;;;;;;;16.34;61.06;100399.03;2071337;28;20061;-74
2022/11/24 04:01:35;;;;;;;0.00;0.00;;;;;;;16.37;60.83;100400.97;2084427;28;20099;-73
2022/11/24 04:02:37;;;;;;;0.00;0.00;;;;;;;16.35;60.77;100401.34;2076500;28;20095;-74
2022/11/24 04:03:40;;;;;;;0.00;0.00;;;;;;;16.34;60.86;100401.75;2078526;28;20083;-74
2022/11/24 04:04:42;;;;;;;0.00;0.00;;;;;;;16.36;60.99;100402.13;2077811;28;20463;-73
2022/11/24 04:05:51;;;;;;;0.00;0.00;;;;;;;16.35;60.90;100409.53;2069932;28;20042;-74
2022/11/24 04:06:53;;;;;;;0.00;0.00;;;;;;;16.35;60.94;100406.00;2078466;28;20827;-74
2022/11/24 04:07:57;;;;;;;0.00;0.00;;;;;;;16.35;61.07;100408.75;2077017;28;20064;-74
2022/11/24 04:08:59;;;;;;;0.00;0.00;;;;;;;16.34;60.86;100407.97;2075903;28;20064;-75
2022/11/24 04:10:02;;;;;;;0.00;0.00;;;;;;;16.35;61.02;100409.53;2068511;28;20058;-74
2022/11/24 04:11:04;;;;;;;0.00;0.00;;;;;;;16.35;60.89;100412.25;2070754;28;20072;-76
2022/11/24 04:13:26;;;;;;;;;;;;;;;16.13;61.29;100418.84;2074421;28;20557;-75
2022/11/24 04:14:28;;;;;;;0.00;0.00;;;;;;;16.24;61.07;100425.09;2069021;28;20403;-75
2022/11/24 04:15:30;;;;;;;0.00;0.00;;;;;;;16.29;61.08;100421.19;2071798;28;20045;-75
2022/11/24 04:16:34;;;;;;;0.00;0.00;;;;;;;16.31;60.88;100430.56;2069215;28;20061;-75
2022/11/24 04:17:36;;;;;;;0.00;0.00;;;;;;;16.30;61.05;100434.44;2067343;28;20490;-75
2022/11/24 04:18:39;;;;;;;0.00;0.00;;;;;;;16.32;60.98;100436.75;2070572;28;20049;-75
2022/11/24 04:19:41;;;;;;;0.00;0.00;;;;;;;16.32;60.97;100443.00;2062970;28;20081;-76
2022/11/24 04:20:44;;;;;;;0.00;0.00;;;;;;;16.32;60.95;100439.50;2061954;28;20146;-76
2022/11/24 04:21:45;;;;;;;0.00;0.00;;;;;;;16.33;60.96;100443.78;2070125;28;20054;-74
2022/11/24 04:22:50;;;;;;;0.00;0.00;;;;;;;16.33;61.03;100438.34;2072930;28;20054;-76
2022/11/24 04:23:52;;;;;;;0.00;0.00;;;;;;;16.32;60.93;100437.56;2067412;28;20053;-76
2022/11/24 04:24:54;;;;;;;0.00;0.00;;;;;;;16.32;60.85;100437.56;2059733;28;21131;-76
2022/11/24 04:25:56;;;;;;;0.00;0.00;;;;;;;16.32;61.01;100434.81;2061799;28;20081;-75
2022/11/24 04:26:59;;;;;;;0.00;0.00;;;;;;;16.33;60.89;100439.09;2072270;28;20116;-73
2022/11/24 04:28:01;;;;;;;0.00;0.00;;;;;;;16.33;61.10;100450.00;2060921;28;20406;-75
2022/11/24 04:29:04;;;;;;;0.00;0.00;;;;;;;16.33;60.82;100444.53;2060491;28;20057;-75
2022/11/24 04:30:07;;;;;;;0.00;0.00;;;;;;;16.33;61.09;100439.09;2068987;28;20156;-75
2022/11/24 04:31:10;;;;;;;0.00;0.00;;;;;;;16.31;60.91;100443.38;2074381;28;20096;-75
2022/11/24 04:32:13;;;;;;;0.00;0.00;;;;;;;16.34;61.13;100446.13;2070154;28;20061;-75
2022/11/24 04:33:16;;;;;;;0.00;0.00;;;;;;;16.33;60.94;100449.22;2061353;28;20498;-75
2022/11/24 04:34:18;;;;;;;0.00;0.00;;;;;;;16.33;60.93;100444.53;2067941;28;20058;-75
2022/11/24 04:35:21;;;;;;;0.00;0.00;;;;;;;16.34;60.95;100450.78;2069829;28;20506;-75
2022/11/24 04:36:23;;;;;;;0.00;0.00;;;;;;;16.34;60.92;100450.78;2061644;28;20423;-75
2022/11/24 04:37:26;;;;;;;0.00;0.00;;;;;;;16.34;60.85;100446.13;2069214;28;20062;-75
2022/11/24 04:38:27;;;;;;;0.00;0.00;;;;;;;16.32;60.86;100440.28;2069390;28;20062;-75
2022/11/24 04:39:50;;;;;;;0.00;0.00;;;;;;;16.31;61.42;100446.91;2071791;28;20053;-74
2022/11/24 04:40:52;;;;;;;0.00;0.00;;;;;;;16.31;60.92;100446.91;2069910;28;20524;-74
2022/11/24 04:41:55;;;;;;;0.00;0.00;;;;;;;16.33;60.83;100450.00;2063064;28;20125;-75
2022/11/24 04:42:57;;;;;;;0.00;0.00;;;;;;;16.33;60.99;100450.00;2065199;28;20059;-74
2022/11/24 04:43:59;;;;;;;0.00;0.00;;;;;;;16.32;61.02;100445.72;2064523;28;20050;-75
2022/11/24 04:45:02;;;;;;;0.05;0.05;;;;;;;16.33;61.04;100439.09;2067495;28;20077;-74
2022/11/24 04:46:04;;;;;;;0.00;0.00;;;;;;;16.33;61.08;100444.53;2067658;28;20050;-75
2022/11/24 04:47:07;;;;;;;0.00;0.00;;;;;;;16.33;60.91;100441.06;2063172;28;20054;-76
2022/11/24 04:48:10;;;;;;;0.00;0.00;;;;;;;16.34;61.06;100435.22;2061683;28;20051;-74
2022/11/24 04:49:13;;;;;;;0.00;0.00;;;;;;;16.33;61.03;100449.22;2071338;28;20050;-75
2022/11/24 04:50:16;;;;;;;0.00;0.00;;;;;;;16.32;61.07;100448.44;2070615;28;20053;-75
2022/11/24 04:51:18;;;;;;;0.00;0.00;;;;;;;16.33;60.92;100444.53;2072110;28;20058;-74
2022/11/24 04:52:22;;;;;;;0.00;0.00;;;;;;;16.34;60.95;100443.41;2079100;28;20045;-74
2022/11/24 04:53:25;;;;;;;0.00;0.00;;;;;;;16.32;61.02;100440.28;2076354;28;20058;-74
2022/11/24 04:54:27;;;;;;;0.00;0.00;;;;;;;16.33;61.04;100441.81;2061648;28;20050;-72
2022/11/24 04:55:30;;;;;;;0.00;0.00;;;;;;;16.33;60.74;100441.81;2062625;28;20062;-74
2022/11/24 04:56:32;;;;;;;0.00;0.00;;;;;;;16.34;60.90;100445.34;2070137;28;20049;-74
2022/11/24 04:57:34;;;;;;;0.00;0.00;;;;;;;16.33;60.96;100441.81;2066103;28;20070;-74
2022/11/24 04:58:36;;;;;;;0.00;0.00;;;;;;;16.33;61.04;100444.53;2057505;28;20038;-74